Terminal Aerodrome Forecast
Issued by NWS

Home | Current Version | Previous Version | Text Only | Print | Product List | Glossary On
Versions: 1 2 3 4 5 6 7 8 9 10 11 12 13 14 15 16 17 18 19 20
000
FTUS44 KEPZ 050535
TAFDMN
TAF
KDMN 050535Z 0506/0606 33007KT 6SM -TSRA BKN050CB OVC120
     FM050700 25006KT P6SM VCSH BKN060 BKN250
     FM050900 26006KT P6SM SCT080 BKN250
     FM052200 25012KT P6SM VCTS SCT070CB BKN250=

USA.gov is the U.S. government's official web portal to all federal, state and local government web resources and services.